sensor_id;sensor_type;location;lat;lon;timestamp;P1;durP1;ratioP1;P2;durP2;ratioP2
67041;SDS011;53949;47.790;18.750;2024-01-11T00:00:16;33.50;;;14.45;;
67041;SDS011;53949;47.790;18.750;2024-01-11T00:03:19;24.67;;;12.20;;
67041;SDS011;53949;47.790;18.750;2024-01-11T00:06:23;24.33;;;10.95;;
67041;SDS011;53949;47.790;18.750;2024-01-11T00:09:26;21.60;;;10.43;;
67041;SDS011;53949;47.790;18.750;2024-01-11T00:12:29;21.70;;;10.85;;
67041;SDS011;53949;47.790;18.750;2024-01-11T00:15:34;16.50;;;9.10;;
67041;SDS011;53949;47.790;18.750;2024-01-11T00:18:37;20.30;;;9.73;;
67041;SDS011;53949;47.790;18.750;2024-01-11T00:21:43;24.33;;;11.20;;
67041;SDS011;53949;47.790;18.750;2024-01-11T00:24:46;23.73;;;10.10;;
67041;SDS011;53949;47.790;18.750;2024-01-11T00:27:49;28.60;;;10.30;;
67041;SDS011;53949;47.790;18.750;2024-01-11T00:30:52;28.20;;;12.15;;
67041;SDS011;53949;47.790;18.750;2024-01-11T00:33:55;31.95;;;13.05;;
67041;SDS011;53949;47.790;18.750;2024-01-11T00:36:59;29.90;;;14.18;;
67041;SDS011;53949;47.790;18.750;2024-01-11T00:40:03;35.47;;;14.68;;
67041;SDS011;53949;47.790;18.750;2024-01-11T00:43:07;32.17;;;13.38;;
67041;SDS011;53949;47.790;18.750;2024-01-11T00:46:10;40.20;;;16.17;;
67041;SDS011;53949;47.790;18.750;2024-01-11T00:49:13;29.15;;;13.88;;
67041;SDS011;53949;47.790;18.750;2024-01-11T00:52:16;33.28;;;15.80;;
67041;SDS011;53949;47.790;18.750;2024-01-11T00:55:19;23.92;;;11.93;;
67041;SDS011;53949;47.790;18.750;2024-01-11T00:58:23;30.45;;;12.65;;
67041;SDS011;53949;47.790;18.750;2024-01-11T01:01:26;29.52;;;12.63;;
67041;SDS011;53949;47.790;18.750;2024-01-11T01:04:32;26.98;;;9.45;;
67041;SDS011;53949;47.790;18.750;2024-01-11T01:07:35;20.27;;;10.43;;
67041;SDS011;53949;47.790;18.750;2024-01-11T01:10:39;16.83;;;10.02;;
67041;SDS011;53949;47.790;18.750;2024-01-11T01:13:42;14.93;;;7.68;;
67041;SDS011;53949;47.790;18.750;2024-01-11T01:16:46;19.25;;;8.65;;
67041;SDS011;53949;47.790;18.750;2024-01-11T01:19:49;21.52;;;11.02;;
67041;SDS011;53949;47.790;18.750;2024-01-11T01:22:52;20.45;;;11.12;;
67041;SDS011;53949;47.790;18.750;2024-01-11T01:25:55;23.05;;;10.18;;
67041;SDS011;53949;47.790;18.750;2024-01-11T01:28:59;21.62;;;11.75;;
67041;SDS011;53949;47.790;18.750;2024-01-11T01:32:02;21.70;;;12.32;;
67041;SDS011;53949;47.790;18.750;2024-01-11T01:35:06;25.55;;;11.27;;
67041;SDS011;53949;47.790;18.750;2024-01-11T01:38:10;25.20;;;11.73;;
67041;SDS011;53949;47.790;18.750;2024-01-11T01:41:16;31.42;;;11.32;;
67041;SDS011;53949;47.790;18.750;2024-01-11T01:44:19;24.87;;;10.48;;
67041;SDS011;53949;47.790;18.750;2024-01-11T01:47:22;18.58;;;11.27;;
67041;SDS011;53949;47.790;18.750;2024-01-11T01:50:25;24.00;;;11.30;;
67041;SDS011;53949;47.790;18.750;2024-01-11T01:53:29;16.60;;;8.00;;
67041;SDS011;53949;47.790;18.750;2024-01-11T01:56:32;23.42;;;10.35;;
67041;SDS011;53949;47.790;18.750;2024-01-11T01:59:36;23.92;;;10.00;;
67041;SDS011;53949;47.790;18.750;2024-01-11T02:02:42;19.85;;;9.15;;
67041;SDS011;53949;47.790;18.750;2024-01-11T02:05:49;20.23;;;9.75;;
67041;SDS011;53949;47.790;18.750;2024-01-11T02:08:55;14.52;;;8.63;;
67041;SDS011;53949;47.790;18.750;2024-01-11T02:12:02;21.98;;;9.90;;
67041;SDS011;53949;47.790;18.750;2024-01-11T02:15:08;16.65;;;8.90;;
67041;SDS011;53949;47.790;18.750;2024-01-11T02:18:12;16.65;;;9.10;;
67041;SDS011;53949;47.790;18.750;2024-01-11T02:21:15;26.27;;;12.30;;
67041;SDS011;53949;47.790;18.750;2024-01-11T02:24:20;23.77;;;11.63;;
67041;SDS011;53949;47.790;18.750;2024-01-11T02:27:24;17.83;;;8.95;;
67041;SDS011;53949;47.790;18.750;2024-01-11T02:30:27;21.73;;;11.27;;
67041;SDS011;53949;47.790;18.750;2024-01-11T02:33:31;22.40;;;10.60;;
67041;SDS011;53949;47.790;18.750;2024-01-11T02:36:34;26.45;;;11.93;;
67041;SDS011;53949;47.790;18.750;2024-01-11T02:39:37;23.08;;;10.90;;
67041;SDS011;53949;47.790;18.750;2024-01-11T02:42:40;22.70;;;10.93;;
67041;SDS011;53949;47.790;18.750;2024-01-11T02:45:43;24.45;;;11.43;;
67041;SDS011;53949;47.790;18.750;2024-01-11T02:48:48;20.65;;;10.80;;
67041;SDS011;53949;47.790;18.750;2024-01-11T02:51:51;21.50;;;11.60;;
67041;SDS011;53949;47.790;18.750;2024-01-11T02:54:54;22.92;;;12.07;;
67041;SDS011;53949;47.790;18.750;2024-01-11T02:57:57;26.87;;;12.50;;
67041;SDS011;53949;47.790;18.750;2024-01-11T03:01:01;30.70;;;12.85;;
67041;SDS011;53949;47.790;18.750;2024-01-11T03:04:05;28.08;;;13.25;;
67041;SDS011;53949;47.790;18.750;2024-01-11T03:07:09;33.92;;;15.00;;
67041;SDS011;53949;47.790;18.750;2024-01-11T03:10:12;32.70;;;16.30;;
67041;SDS011;53949;47.790;18.750;2024-01-11T03:13:16;33.38;;;17.37;;
67041;SDS011;53949;47.790;18.750;2024-01-11T03:16:21;30.77;;;16.58;;
67041;SDS011;53949;47.790;18.750;2024-01-11T03:19:25;38.15;;;16.62;;
67041;SDS011;53949;47.790;18.750;2024-01-11T03:22:28;28.38;;;13.88;;
67041;SDS011;53949;47.790;18.750;2024-01-11T03:25:31;31.30;;;15.25;;
67041;SDS011;53949;47.790;18.750;2024-01-11T03:28:34;28.58;;;14.15;;
67041;SDS011;53949;47.790;18.750;2024-01-11T03:31:38;28.50;;;12.63;;
67041;SDS011;53949;47.790;18.750;2024-01-11T03:34:44;31.08;;;12.57;;
67041;SDS011;53949;47.790;18.750;2024-01-11T03:37:47;31.62;;;13.88;;
67041;SDS011;53949;47.790;18.750;2024-01-11T03:40:50;33.08;;;15.52;;
67041;SDS011;53949;47.790;18.750;2024-01-11T03:43:53;18.33;;;10.88;;
67041;SDS011;53949;47.790;18.750;2024-01-11T03:46:56;22.67;;;12.35;;
67041;SDS011;53949;47.790;18.750;2024-01-11T03:50:00;28.95;;;13.40;;
67041;SDS011;53949;47.790;18.750;2024-01-11T03:53:04;21.90;;;11.95;;
67041;SDS011;53949;47.790;18.750;2024-01-11T03:56:08;23.02;;;11.27;;
67041;SDS011;53949;47.790;18.750;2024-01-11T03:59:13;19.67;;;10.63;;
67041;SDS011;53949;47.790;18.750;2024-01-11T04:02:17;23.70;;;11.33;;
67041;SDS011;53949;47.790;18.750;2024-01-11T04:05:21;24.33;;;11.18;;
67041;SDS011;53949;47.790;18.750;2024-01-11T04:08:24;20.83;;;8.93;;
67041;SDS011;53949;47.790;18.750;2024-01-11T04:11:28;14.97;;;9.00;;
67041;SDS011;53949;47.790;18.750;2024-01-11T04:14:32;16.37;;;8.63;;
67041;SDS011;53949;47.790;18.750;2024-01-11T04:17:35;17.33;;;9.82;;
67041;SDS011;53949;47.790;18.750;2024-01-11T04:20:40;15.85;;;8.32;;
67041;SDS011;53949;47.790;18.750;2024-01-11T04:23:43;20.67;;;8.23;;
67041;SDS011;53949;47.790;18.750;2024-01-11T04:26:46;18.70;;;9.23;;
67041;SDS011;53949;47.790;18.750;2024-01-11T04:29:54;15.32;;;8.48;;
67041;SDS011;53949;47.790;18.750;2024-01-11T04:32:58;19.35;;;10.32;;
67041;SDS011;53949;47.790;18.750;2024-01-11T04:36:02;18.90;;;8.88;;
67041;SDS011;53949;47.790;18.750;2024-01-11T04:39:05;25.45;;;9.73;;
67041;SDS011;53949;47.790;18.750;2024-01-11T04:42:10;21.57;;;10.47;;
67041;SDS011;53949;47.790;18.750;2024-01-11T04:45:13;21.40;;;10.45;;
67041;SDS011;53949;47.790;18.750;2024-01-11T04:48:18;19.55;;;10.73;;
67041;SDS011;53949;47.790;18.750;2024-01-11T04:51:22;18.73;;;8.90;;
67041;SDS011;53949;47.790;18.750;2024-01-11T04:54:26;19.73;;;8.73;;
67041;SDS011;53949;47.790;18.750;2024-01-11T04:57:32;22.05;;;11.02;;
67041;SDS011;53949;47.790;18.750;2024-01-11T05:00:36;23.70;;;10.13;;
67041;SDS011;53949;47.790;18.750;2024-01-11T05:03:39;19.48;;;11.12;;
67041;SDS011;53949;47.790;18.750;2024-01-11T05:06:42;18.23;;;10.13;;
67041;SDS011;53949;47.790;18.750;2024-01-11T05:09:47;20.40;;;10.80;;
67041;SDS011;53949;47.790;18.750;2024-01-11T05:12:51;24.58;;;11.07;;
67041;SDS011;53949;47.790;18.750;2024-01-11T05:15:54;20.12;;;11.23;;
67041;SDS011;53949;47.790;18.750;2024-01-11T05:19:02;24.75;;;11.35;;
67041;SDS011;53949;47.790;18.750;2024-01-11T05:22:05;22.70;;;11.43;;
67041;SDS011;53949;47.790;18.750;2024-01-11T05:25:09;23.62;;;11.15;;
67041;SDS011;53949;47.790;18.750;2024-01-11T05:28:12;19.83;;;10.45;;
67041;SDS011;53949;47.790;18.750;2024-01-11T05:31:16;20.88;;;12.05;;
67041;SDS011;53949;47.790;18.750;2024-01-11T05:34:20;38.22;;;16.62;;
67041;SDS011;53949;47.790;18.750;2024-01-11T05:37:24;25.98;;;10.80;;
67041;SDS011;53949;47.790;18.750;2024-01-11T05:40:27;25.67;;;11.27;;
67041;SDS011;53949;47.790;18.750;2024-01-11T05:43:30;31.90;;;15.32;;
67041;SDS011;53949;47.790;18.750;2024-01-11T05:46:33;22.02;;;11.32;;
67041;SDS011;53949;47.790;18.750;2024-01-11T05:49:40;31.77;;;13.52;;
67041;SDS011;53949;47.790;18.750;2024-01-11T05:52:43;21.07;;;11.93;;
67041;SDS011;53949;47.790;18.750;2024-01-11T05:55:47;23.38;;;12.60;;
67041;SDS011;53949;47.790;18.750;2024-01-11T05:58:54;26.10;;;11.32;;
67041;SDS011;53949;47.790;18.750;2024-01-11T06:01:57;22.80;;;11.43;;
67041;SDS011;53949;47.790;18.750;2024-01-11T06:05:03;24.80;;;11.63;;
67041;SDS011;53949;47.790;18.750;2024-01-11T06:08:06;26.98;;;11.80;;
67041;SDS011;53949;47.790;18.750;2024-01-11T06:11:11;30.00;;;10.50;;
67041;SDS011;53949;47.790;18.750;2024-01-11T06:14:14;20.75;;;10.90;;
67041;SDS011;53949;47.790;18.750;2024-01-11T06:17:18;24.48;;;12.55;;
67041;SDS011;53949;47.790;18.750;2024-01-11T06:20:21;22.50;;;11.93;;
67041;SDS011;53949;47.790;18.750;2024-01-11T06:23:25;24.08;;;11.93;;
67041;SDS011;53949;47.790;18.750;2024-01-11T06:26:30;27.80;;;12.32;;
67041;SDS011;53949;47.790;18.750;2024-01-11T06:29:33;28.33;;;12.45;;
67041;SDS011;53949;47.790;18.750;2024-01-11T06:32:36;28.60;;;11.20;;
67041;SDS011;53949;47.790;18.750;2024-01-11T06:35:41;26.70;;;12.85;;
67041;SDS011;53949;47.790;18.750;2024-01-11T06:38:44;27.13;;;11.02;;
67041;SDS011;53949;47.790;18.750;2024-01-11T06:41:48;25.70;;;13.10;;
67041;SDS011;53949;47.790;18.750;2024-01-11T06:44:53;28.27;;;13.15;;
67041;SDS011;53949;47.790;18.750;2024-01-11T06:47:56;25.83;;;13.90;;
67041;SDS011;53949;47.790;18.750;2024-01-11T06:51:00;29.77;;;14.00;;
67041;SDS011;53949;47.790;18.750;2024-01-11T06:54:04;24.85;;;12.93;;
67041;SDS011;53949;47.790;18.750;2024-01-11T06:57:07;33.00;;;12.18;;
67041;SDS011;53949;47.790;18.750;2024-01-11T07:00:13;27.62;;;13.30;;
67041;SDS011;53949;47.790;18.750;2024-01-11T07:03:16;26.35;;;14.13;;
67041;SDS011;53949;47.790;18.750;2024-01-11T07:06:21;22.07;;;11.73;;
67041;SDS011;53949;47.790;18.750;2024-01-11T07:09:25;35.47;;;16.90;;
67041;SDS011;53949;47.790;18.750;2024-01-11T07:12:29;30.08;;;14.32;;
67041;SDS011;53949;47.790;18.750;2024-01-11T07:15:32;26.17;;;13.18;;
67041;SDS011;53949;47.790;18.750;2024-01-11T07:18:36;29.37;;;13.70;;
67041;SDS011;53949;47.790;18.750;2024-01-11T07:21:39;22.05;;;12.00;;
67041;SDS011;53949;47.790;18.750;2024-01-11T07:24:42;31.45;;;16.05;;
67041;SDS011;53949;47.790;18.750;2024-01-11T07:27:44;28.52;;;15.15;;
67041;SDS011;53949;47.790;18.750;2024-01-11T07:30:51;31.95;;;14.73;;
67041;SDS011;53949;47.790;18.750;2024-01-11T07:33:56;29.75;;;13.65;;
67041;SDS011;53949;47.790;18.750;2024-01-11T07:37:00;31.20;;;15.20;;
67041;SDS011;53949;47.790;18.750;2024-01-11T07:40:03;34.13;;;15.50;;
67041;SDS011;53949;47.790;18.750;2024-01-11T07:43:06;34.13;;;14.82;;
67041;SDS011;53949;47.790;18.750;2024-01-11T07:46:14;25.25;;;13.27;;
67041;SDS011;53949;47.790;18.750;2024-01-11T07:49:17;44.53;;;20.42;;
67041;SDS011;53949;47.790;18.750;2024-01-11T07:52:20;49.90;;;21.85;;
67041;SDS011;53949;47.790;18.750;2024-01-11T07:55:24;58.97;;;26.75;;
67041;SDS011;53949;47.790;18.750;2024-01-11T07:58:27;50.22;;;23.65;;
67041;SDS011;53949;47.790;18.750;2024-01-11T08:01:30;51.92;;;25.30;;
67041;SDS011;53949;47.790;18.750;2024-01-11T08:04:38;43.20;;;20.67;;
67041;SDS011;53949;47.790;18.750;2024-01-11T08:07:41;45.38;;;22.05;;
67041;SDS011;53949;47.790;18.750;2024-01-11T08:10:47;49.35;;;22.13;;
67041;SDS011;53949;47.790;18.750;2024-01-11T08:13:52;47.55;;;23.67;;
67041;SDS011;53949;47.790;18.750;2024-01-11T08:16:57;49.15;;;22.70;;
67041;SDS011;53949;47.790;18.750;2024-01-11T08:20:01;44.78;;;22.75;;
67041;SDS011;53949;47.790;18.750;2024-01-11T08:26:11;40.65;;;20.40;;
67041;SDS011;53949;47.790;18.750;2024-01-11T08:29:15;50.45;;;22.50;;
67041;SDS011;53949;47.790;18.750;2024-01-11T08:32:18;50.05;;;20.85;;
67041;SDS011;53949;47.790;18.750;2024-01-11T08:35:34;37.28;;;19.80;;
67041;SDS011;53949;47.790;18.750;2024-01-11T08:38:38;51.47;;;16.83;;
67041;SDS011;53949;47.790;18.750;2024-01-11T08:41:43;32.17;;;16.83;;
67041;SDS011;53949;47.790;18.750;2024-01-11T08:44:48;38.15;;;20.27;;
67041;SDS011;53949;47.790;18.750;2024-01-11T08:47:56;37.45;;;20.92;;
67041;SDS011;53949;47.790;18.750;2024-01-11T08:50:59;58.42;;;22.70;;
67041;SDS011;53949;47.790;18.750;2024-01-11T08:54:03;44.78;;;20.55;;
67041;SDS011;53949;47.790;18.750;2024-01-11T08:57:07;39.47;;;17.80;;
67041;SDS011;53949;47.790;18.750;2024-01-11T09:00:11;36.65;;;15.85;;
67041;SDS011;53949;47.790;18.750;2024-01-11T09:03:14;35.65;;;15.38;;
67041;SDS011;53949;47.790;18.750;2024-01-11T09:06:20;41.55;;;18.65;;
67041;SDS011;53949;47.790;18.750;2024-01-11T09:09:23;31.33;;;17.73;;
67041;SDS011;53949;47.790;18.750;2024-01-11T09:12:27;37.97;;;16.40;;
67041;SDS011;53949;47.790;18.750;2024-01-11T09:15:29;37.38;;;18.52;;
67041;SDS011;53949;47.790;18.750;2024-01-11T09:18:32;42.42;;;20.33;;
67041;SDS011;53949;47.790;18.750;2024-01-11T09:21:35;43.72;;;19.98;;
67041;SDS011;53949;47.790;18.750;2024-01-11T09:24:39;47.50;;;23.35;;
67041;SDS011;53949;47.790;18.750;2024-01-11T09:27:45;49.70;;;20.40;;
67041;SDS011;53949;47.790;18.750;2024-01-11T09:30:48;47.30;;;20.58;;
67041;SDS011;53949;47.790;18.750;2024-01-11T09:33:52;45.50;;;19.33;;
67041;SDS011;53949;47.790;18.750;2024-01-11T09:37:00;32.78;;;16.55;;
67041;SDS011;53949;47.790;18.750;2024-01-11T09:40:03;33.78;;;17.83;;
67041;SDS011;53949;47.790;18.750;2024-01-11T09:43:10;35.05;;;18.02;;
67041;SDS011;53949;47.790;18.750;2024-01-11T09:46:17;35.33;;;17.55;;
67041;SDS011;53949;47.790;18.750;2024-01-11T09:49:21;33.95;;;17.25;;
67041;SDS011;53949;47.790;18.750;2024-01-11T09:52:25;38.37;;;16.77;;
67041;SDS011;53949;47.790;18.750;2024-01-11T09:55:29;36.05;;;16.40;;
67041;SDS011;53949;47.790;18.750;2024-01-11T09:58:33;35.95;;;16.52;;
67041;SDS011;53949;47.790;18.750;2024-01-11T10:01:41;33.72;;;15.52;;
67041;SDS011;53949;47.790;18.750;2024-01-11T10:04:47;35.30;;;16.45;;
67041;SDS011;53949;47.790;18.750;2024-01-11T10:07:54;37.45;;;16.05;;
67041;SDS011;53949;47.790;18.750;2024-01-11T10:10:58;34.70;;;16.25;;
67041;SDS011;53949;47.790;18.750;2024-01-11T10:14:01;38.90;;;17.48;;
67041;SDS011;53949;47.790;18.750;2024-01-11T10:17:05;33.83;;;16.25;;
67041;SDS011;53949;47.790;18.750;2024-01-11T10:20:13;41.25;;;18.12;;
67041;SDS011;53949;47.790;18.750;2024-01-11T10:23:18;40.08;;;18.37;;
67041;SDS011;53949;47.790;18.750;2024-01-11T10:26:23;39.73;;;17.27;;
67041;SDS011;53949;47.790;18.750;2024-01-11T10:29:31;41.58;;;19.52;;
67041;SDS011;53949;47.790;18.750;2024-01-11T10:32:35;37.72;;;18.98;;
67041;SDS011;53949;47.790;18.750;2024-01-11T10:35:42;37.47;;;18.27;;
67041;SDS011;53949;47.790;18.750;2024-01-11T10:38:46;37.63;;;18.70;;
67041;SDS011;53949;47.790;18.750;2024-01-11T10:41:52;41.67;;;18.77;;
67041;SDS011;53949;47.790;18.750;2024-01-11T10:45:07;35.67;;;18.75;;
67041;SDS011;53949;47.790;18.750;2024-01-11T10:48:21;38.28;;;19.42;;
67041;SDS011;53949;47.790;18.750;2024-01-11T10:51:26;29.87;;;13.82;;
67041;SDS011;53949;47.790;18.750;2024-01-11T10:54:31;29.50;;;14.90;;
67041;SDS011;53949;47.790;18.750;2024-01-11T10:57:34;28.08;;;13.75;;
67041;SDS011;53949;47.790;18.750;2024-01-11T11:00:37;26.55;;;14.65;;
67041;SDS011;53949;47.790;18.750;2024-01-11T11:03:40;29.95;;;15.10;;
67041;SDS011;53949;47.790;18.750;2024-01-11T11:06:49;29.75;;;14.10;;
67041;SDS011;53949;47.790;18.750;2024-01-11T11:09:53;21.15;;;11.60;;
67041;SDS011;53949;47.790;18.750;2024-01-11T11:13:00;23.55;;;8.85;;
67041;SDS011;53949;47.790;18.750;2024-01-11T11:16:03;31.83;;;15.35;;
67041;SDS011;53949;47.790;18.750;2024-01-11T11:19:08;23.45;;;12.65;;
67041;SDS011;53949;47.790;18.750;2024-01-11T11:22:12;24.70;;;10.73;;
67041;SDS011;53949;47.790;18.750;2024-01-11T11:25:26;19.50;;;11.12;;
67041;SDS011;53949;47.790;18.750;2024-01-11T11:28:29;25.62;;;13.73;;
67041;SDS011;53949;47.790;18.750;2024-01-11T11:31:43;24.35;;;12.27;;
67041;SDS011;53949;47.790;18.750;2024-01-11T11:34:48;29.93;;;15.23;;
67041;SDS011;53949;47.790;18.750;2024-01-11T11:37:55;29.05;;;14.93;;
67041;SDS011;53949;47.790;18.750;2024-01-11T11:41:00;30.52;;;14.30;;
67041;SDS011;53949;47.790;18.750;2024-01-11T11:44:04;19.10;;;11.55;;
67041;SDS011;53949;47.790;18.750;2024-01-11T11:47:23;30.98;;;14.48;;
67041;SDS011;53949;47.790;18.750;2024-01-11T11:50:27;27.70;;;14.18;;
67041;SDS011;53949;47.790;18.750;2024-01-11T11:53:39;20.08;;;10.85;;
67041;SDS011;53949;47.790;18.750;2024-01-11T11:56:43;24.10;;;11.05;;
67041;SDS011;53949;47.790;18.750;2024-01-11T11:59:48;27.80;;;13.82;;
67041;SDS011;53949;47.790;18.750;2024-01-11T12:02:52;24.90;;;13.45;;
67041;SDS011;53949;47.790;18.750;2024-01-11T12:05:58;29.65;;;14.77;;
67041;SDS011;53949;47.790;18.750;2024-01-11T12:09:03;25.37;;;11.88;;
67041;SDS011;53949;47.790;18.750;2024-01-11T12:12:06;23.12;;;14.05;;
67041;SDS011;53949;47.790;18.750;2024-01-11T12:15:17;29.17;;;14.07;;
67041;SDS011;53949;47.790;18.750;2024-01-11T12:18:21;27.75;;;13.07;;
67041;SDS011;53949;47.790;18.750;2024-01-11T12:21:25;26.30;;;12.30;;
67041;SDS011;53949;47.790;18.750;2024-01-11T12:24:30;27.73;;;14.30;;
67041;SDS011;53949;47.790;18.750;2024-01-11T12:27:34;27.67;;;12.55;;
67041;SDS011;53949;47.790;18.750;2024-01-11T12:30:37;25.08;;;11.85;;
67041;SDS011;53949;47.790;18.750;2024-01-11T12:33:41;20.08;;;11.50;;
67041;SDS011;53949;47.790;18.750;2024-01-11T12:36:46;18.27;;;10.77;;
67041;SDS011;53949;47.790;18.750;2024-01-11T12:39:49;22.62;;;10.80;;
67041;SDS011;53949;47.790;18.750;2024-01-11T12:42:56;22.70;;;11.77;;
67041;SDS011;53949;47.790;18.750;2024-01-11T12:46:00;22.95;;;12.10;;
67041;SDS011;53949;47.790;18.750;2024-01-11T12:49:09;26.70;;;12.73;;
67041;SDS011;53949;47.790;18.750;2024-01-11T12:52:19;27.30;;;13.73;;
67041;SDS011;53949;47.790;18.750;2024-01-11T12:55:23;23.55;;;12.27;;
67041;SDS011;53949;47.790;18.750;2024-01-11T12:58:28;24.17;;;11.82;;
67041;SDS011;53949;47.790;18.750;2024-01-11T13:01:31;23.55;;;11.57;;
67041;SDS011;53949;47.790;18.750;2024-01-11T13:04:34;26.92;;;13.32;;
67041;SDS011;53949;47.790;18.750;2024-01-11T13:07:37;22.40;;;12.65;;
67041;SDS011;53949;47.790;18.750;2024-01-11T13:10:40;27.10;;;13.25;;
67041;SDS011;53949;47.790;18.750;2024-01-11T13:13:44;23.45;;;12.02;;
67041;SDS011;53949;47.790;18.750;2024-01-11T13:19:53;18.12;;;10.35;;
67041;SDS011;53949;47.790;18.750;2024-01-11T13:23:19;16.70;;;9.95;;
67041;SDS011;53949;47.790;18.750;2024-01-11T13:26:24;25.88;;;12.55;;
67041;SDS011;53949;47.790;18.750;2024-01-11T13:29:27;24.90;;;11.48;;
67041;SDS011;53949;47.790;18.750;2024-01-11T13:32:32;23.08;;;12.55;;
67041;SDS011;53949;47.790;18.750;2024-01-11T13:35:36;24.92;;;11.70;;
67041;SDS011;53949;47.790;18.750;2024-01-11T13:38:41;28.48;;;14.13;;
67041;SDS011;53949;47.790;18.750;2024-01-11T13:41:44;25.48;;;9.77;;
67041;SDS011;53949;47.790;18.750;2024-01-11T13:44:47;29.60;;;14.45;;
67041;SDS011;53949;47.790;18.750;2024-01-11T13:47:50;27.37;;;13.40;;
67041;SDS011;53949;47.790;18.750;2024-01-11T13:50:54;32.45;;;14.23;;
67041;SDS011;53949;47.790;18.750;2024-01-11T13:53:58;26.10;;;13.15;;
67041;SDS011;53949;47.790;18.750;2024-01-11T14:00:09;29.42;;;15.10;;
67041;SDS011;53949;47.790;18.750;2024-01-11T14:03:14;22.45;;;12.63;;
67041;SDS011;53949;47.790;18.750;2024-01-11T14:06:17;26.33;;;14.07;;
67041;SDS011;53949;47.790;18.750;2024-01-11T14:09:23;26.37;;;13.32;;
67041;SDS011;53949;47.790;18.750;2024-01-11T14:12:26;29.65;;;13.32;;
67041;SDS011;53949;47.790;18.750;2024-01-11T14:15:29;18.05;;;9.60;;
67041;SDS011;53949;47.790;18.750;2024-01-11T14:18:33;29.50;;;13.55;;
67041;SDS011;53949;47.790;18.750;2024-01-11T14:21:37;16.25;;;8.63;;
67041;SDS011;53949;47.790;18.750;2024-01-11T14:24:40;17.62;;;8.13;;
67041;SDS011;53949;47.790;18.750;2024-01-11T14:27:43;25.45;;;11.88;;
67041;SDS011;53949;47.790;18.750;2024-01-11T14:30:48;23.50;;;12.32;;
67041;SDS011;53949;47.790;18.750;2024-01-11T14:33:52;28.02;;;13.07;;
67041;SDS011;53949;47.790;18.750;2024-01-11T14:36:55;25.70;;;11.18;;
67041;SDS011;53949;47.790;18.750;2024-01-11T14:39:58;26.40;;;12.55;;
67041;SDS011;53949;47.790;18.750;2024-01-11T14:43:02;25.30;;;13.38;;
67041;SDS011;53949;47.790;18.750;2024-01-11T14:49:13;18.67;;;8.90;;
67041;SDS011;53949;47.790;18.750;2024-01-11T14:52:17;21.60;;;10.07;;
67041;SDS011;53949;47.790;18.750;2024-01-11T14:55:23;24.70;;;13.50;;
67041;SDS011;53949;47.790;18.750;2024-01-11T14:58:26;24.87;;;13.45;;
67041;SDS011;53949;47.790;18.750;2024-01-11T15:01:29;35.33;;;15.73;;
67041;SDS011;53949;47.790;18.750;2024-01-11T15:04:34;24.35;;;12.98;;
67041;SDS011;53949;47.790;18.750;2024-01-11T15:07:37;27.23;;;12.88;;
67041;SDS011;53949;47.790;18.750;2024-01-11T15:10:40;28.17;;;13.68;;
67041;SDS011;53949;47.790;18.750;2024-01-11T15:13:45;23.33;;;11.57;;
67041;SDS011;53949;47.790;18.750;2024-01-11T15:16:49;28.33;;;10.68;;
67041;SDS011;53949;47.790;18.750;2024-01-11T15:22:57;26.33;;;14.30;;
67041;SDS011;53949;47.790;18.750;2024-01-11T15:26:01;35.75;;;17.10;;
67041;SDS011;53949;47.790;18.750;2024-01-11T15:29:06;29.95;;;15.95;;
67041;SDS011;53949;47.790;18.750;2024-01-11T15:32:09;34.53;;;17.37;;
67041;SDS011;53949;47.790;18.750;2024-01-11T15:35:16;30.52;;;14.80;;
67041;SDS011;53949;47.790;18.750;2024-01-11T15:38:19;32.50;;;15.13;;
67041;SDS011;53949;47.790;18.750;2024-01-11T15:41:22;37.47;;;17.60;;
67041;SDS011;53949;47.790;18.750;2024-01-11T15:44:26;32.75;;;16.17;;
67041;SDS011;53949;47.790;18.750;2024-01-11T15:47:31;23.33;;;12.85;;
67041;SDS011;53949;47.790;18.750;2024-01-11T15:50:34;39.70;;;17.42;;
67041;SDS011;53949;47.790;18.750;2024-01-11T15:53:38;41.58;;;17.40;;
67041;SDS011;53949;47.790;18.750;2024-01-11T15:56:41;40.08;;;20.35;;
67041;SDS011;53949;47.790;18.750;2024-01-11T15:59:44;40.92;;;19.48;;
67041;SDS011;53949;47.790;18.750;2024-01-11T16:02:47;34.03;;;16.65;;
67041;SDS011;53949;47.790;18.750;2024-01-11T16:05:51;48.70;;;20.02;;
67041;SDS011;53949;47.790;18.750;2024-01-11T16:08:54;12.75;;;8.75;;
67041;SDS011;53949;47.790;18.750;2024-01-11T16:11:57;35.85;;;18.40;;
67041;SDS011;53949;47.790;18.750;2024-01-11T16:15:07;19.62;;;11.60;;
67041;SDS011;53949;47.790;18.750;2024-01-11T16:18:10;42.65;;;20.85;;
67041;SDS011;53949;47.790;18.750;2024-01-11T16:21:14;42.70;;;21.67;;
67041;SDS011;53949;47.790;18.750;2024-01-11T16:24:17;40.95;;;18.42;;
67041;SDS011;53949;47.790;18.750;2024-01-11T16:27:21;31.55;;;16.77;;
67041;SDS011;53949;47.790;18.750;2024-01-11T16:30:25;39.83;;;19.73;;
67041;SDS011;53949;47.790;18.750;2024-01-11T16:33:29;33.20;;;16.95;;
67041;SDS011;53949;47.790;18.750;2024-01-11T16:36:37;41.45;;;20.10;;
67041;SDS011;53949;47.790;18.750;2024-01-11T16:39:42;40.55;;;19.70;;
67041;SDS011;53949;47.790;18.750;2024-01-11T16:42:46;44.90;;;21.10;;
67041;SDS011;53949;47.790;18.750;2024-01-11T16:45:50;37.25;;;17.87;;
67041;SDS011;53949;47.790;18.750;2024-01-11T16:48:53;39.35;;;18.67;;
67041;SDS011;53949;47.790;18.750;2024-01-11T16:51:57;44.72;;;21.55;;
67041;SDS011;53949;47.790;18.750;2024-01-11T16:55:00;48.22;;;23.30;;
67041;SDS011;53949;47.790;18.750;2024-01-11T16:58:03;49.47;;;23.48;;
67041;SDS011;53949;47.790;18.750;2024-01-11T17:01:10;41.08;;;19.92;;
67041;SDS011;53949;47.790;18.750;2024-01-11T17:04:14;42.92;;;22.30;;
67041;SDS011;53949;47.790;18.750;2024-01-11T17:07:18;43.67;;;21.45;;
67041;SDS011;53949;47.790;18.750;2024-01-11T17:10:25;33.88;;;18.98;;
67041;SDS011;53949;47.790;18.750;2024-01-11T17:13:29;43.75;;;20.35;;
67041;SDS011;53949;47.790;18.750;2024-01-11T17:16:35;46.47;;;21.10;;
67041;SDS011;53949;47.790;18.750;2024-01-11T17:19:39;32.08;;;17.85;;
67041;SDS011;53949;47.790;18.750;2024-01-11T17:22:42;35.67;;;17.70;;
67041;SDS011;53949;47.790;18.750;2024-01-11T17:25:47;26.87;;;15.15;;
67041;SDS011;53949;47.790;18.750;2024-01-11T17:28:52;27.52;;;13.05;;
67041;SDS011;53949;47.790;18.750;2024-01-11T17:31:58;37.80;;;17.40;;
67041;SDS011;53949;47.790;18.750;2024-01-11T17:35:01;37.85;;;17.98;;
67041;SDS011;53949;47.790;18.750;2024-01-11T17:38:05;25.55;;;14.68;;
67041;SDS011;53949;47.790;18.750;2024-01-11T17:41:08;34.95;;;16.67;;
67041;SDS011;53949;47.790;18.750;2024-01-11T17:44:12;36.72;;;18.80;;
67041;SDS011;53949;47.790;18.750;2024-01-11T17:47:16;38.85;;;19.95;;
67041;SDS011;53949;47.790;18.750;2024-01-11T17:50:21;7.90;;;5.35;;
67041;SDS011;53949;47.790;18.750;2024-01-11T17:53:25;40.20;;;18.45;;
67041;SDS011;53949;47.790;18.750;2024-01-11T17:59:33;34.55;;;17.92;;
67041;SDS011;53949;47.790;18.750;2024-01-11T18:02:36;35.40;;;17.15;;